createdAt,value
2019-02-28T00:01:29.135Z,8.40
2019-02-28T00:03:59.191Z,8.30
2019-02-28T00:06:29.452Z,8.40
2019-02-28T00:09:02.352Z,8.50
2019-02-28T00:11:32.481Z,8.50
2019-02-28T00:14:05.742Z,8.40
2019-02-28T00:16:36.328Z,8.40
2019-02-28T00:19:07.207Z,8.40
2019-02-28T00:21:44.935Z,8.30
2019-02-28T00:24:15.808Z,8.30
2019-02-28T00:26:47.634Z,8.30
2019-02-28T00:29:17.729Z,8.20
2019-02-28T00:31:49.989Z,8.20
2019-02-28T00:34:22.474Z,8.20
2019-02-28T00:36:53.367Z,8.20
2019-02-28T00:39:24.074Z,8.20
2019-02-28T00:41:53.788Z,8.10
2019-02-28T00:44:24.470Z,8.00
2019-02-28T00:46:55.020Z,8.20
2019-02-28T00:49:25.492Z,8.10
2019-02-28T00:51:55.655Z,8.10
2019-02-28T00:54:25.871Z,8.00
2019-02-28T00:56:56.350Z,7.90
2019-02-28T00:59:26.723Z,7.90
2019-02-28T01:01:57.340Z,8.30
2019-02-28T01:04:29.830Z,8.20
2019-02-28T01:07:00.861Z,8.20
2019-02-28T01:09:31.010Z,8.20
2019-02-28T01:12:01.630Z,8.20
2019-02-28T01:14:32.389Z,8.30
2019-02-28T01:17:03.970Z,8.20
2019-02-28T01:19:34.684Z,8.10
2019-02-28T01:22:07.284Z,8.10
2019-02-28T01:24:37.440Z,8.10
2019-02-28T01:27:07.940Z,8.20
2019-02-28T01:29:39.996Z,8.20
2019-02-28T01:32:15.632Z,8.20
2019-02-28T01:34:46.650Z,8.20
2019-02-28T01:37:20.831Z,8.30
2019-02-28T01:39:53.379Z,8.20
2019-02-28T01:42:26.482Z,8.30
2019-02-28T01:44:57.218Z,8.40
2019-02-28T01:47:27.108Z,8.40
2019-02-28T01:49:58.747Z,8.40
2019-02-28T01:52:29.187Z,8.40
2019-02-28T01:54:59.537Z,8.60
2019-02-28T01:57:30.191Z,8.70
2019-02-28T02:00:03.740Z,8.60
2019-02-28T02:02:34.095Z,8.50
2019-02-28T02:05:04.797Z,8.40
2019-02-28T02:07:35.107Z,8.50
2019-02-28T02:10:08.649Z,8.40
2019-02-28T02:12:39.186Z,8.40
2019-02-28T02:15:16.871Z,8.40
2019-02-28T02:17:46.546Z,8.30
2019-02-28T02:20:17.622Z,8.40
2019-02-28T02:22:54.416Z,8.40
2019-02-28T02:25:24.943Z,8.40
2019-02-28T02:27:56.470Z,8.30
2019-02-28T02:30:27.450Z,8.40
2019-02-28T02:32:57.469Z,8.40
2019-02-28T02:35:27.576Z,8.40
2019-02-28T02:37:57.943Z,8.60
2019-02-28T02:40:27.918Z,8.50
2019-02-28T02:43:00.747Z,8.50
2019-02-28T02:45:30.724Z,8.40
2019-02-28T02:48:05.210Z,8.50
2019-02-28T02:50:35.998Z,8.40
2019-02-28T02:53:06.897Z,8.40
2019-02-28T02:55:37.093Z,8.40
2019-02-28T02:58:07.777Z,8.40
2019-02-28T03:00:39.035Z,8.40
2019-02-28T03:03:09.292Z,8.40
2019-02-28T03:05:44.285Z,8.20
2019-02-28T03:08:14.301Z,8.10
2019-02-28T03:10:45.071Z,8.20
2019-02-28T03:13:15.876Z,8.20
2019-02-28T03:15:46.864Z,8.10
2019-02-28T03:18:20.414Z,8.10
2019-02-28T03:20:48.639Z,8.20
2019-02-28T03:23:19.151Z,8.10
2019-02-28T03:25:51.519Z,8.10
2019-02-28T03:28:23.485Z,8.10
2019-02-28T03:30:55.188Z,8.00
2019-02-28T03:33:28.711Z,8.10
2019-02-28T03:35:57.685Z,7.90
2019-02-28T03:38:27.698Z,7.90
2019-02-28T03:40:58.048Z,8.00
2019-02-28T03:43:29.196Z,8.00
2019-02-28T03:45:59.332Z,8.10
2019-02-28T03:48:35.907Z,8.00
2019-02-28T03:51:19.285Z,7.90
2019-02-28T03:53:55.605Z,7.80
2019-02-28T03:56:20.348Z,7.90
2019-02-28T03:58:50.585Z,7.80
2019-02-28T04:01:20.726Z,7.70
2019-02-28T04:03:51.085Z,7.70
2019-02-28T04:06:21.494Z,7.80
2019-02-28T04:08:52.394Z,7.70
2019-02-28T04:11:22.889Z,7.70
2019-02-28T04:13:56.017Z,7.60
2019-02-28T04:16:27.078Z,7.60
2019-02-28T04:18:57.304Z,7.70
2019-02-28T04:21:31.322Z,7.70
2019-02-28T04:24:39.423Z,7.50
2019-02-28T04:27:09.954Z,7.50
2019-02-28T04:29:40.110Z,7.60
2019-02-28T04:32:47.665Z,7.50
2019-02-28T04:35:24.283Z,7.50
2019-02-28T04:37:51.603Z,7.40
2019-02-28T04:40:41.112Z,7.40
2019-02-28T04:43:14.495Z,7.30
2019-02-28T04:45:49.027Z,7.20
2019-02-28T04:48:22.703Z,7.20
2019-02-28T04:50:58.762Z,7.20
2019-02-28T04:53:28.645Z,7.10
2019-02-28T04:56:02.137Z,7.20
2019-02-28T04:58:37.724Z,7.20
2019-02-28T05:01:09.153Z,7.10
2019-02-28T05:03:39.968Z,7.00
2019-02-28T05:06:18.334Z,7.10
2019-02-28T05:08:48.855Z,7.00
2019-02-28T05:11:19.164Z,7.10
2019-02-28T05:13:50.277Z,7.00
2019-02-28T05:16:20.114Z,6.90
2019-02-28T05:18:49.942Z,6.90
2019-02-28T05:21:20.276Z,6.90
2019-02-28T05:23:49.988Z,6.90
2019-02-28T05:26:23.502Z,6.90
2019-02-28T05:28:52.150Z,6.90
2019-02-28T05:31:24.168Z,6.90
2019-02-28T05:33:53.849Z,6.90
2019-02-28T05:36:24.025Z,7.00
2019-02-28T05:38:56.535Z,6.90
2019-02-28T05:41:25.869Z,6.80
2019-02-28T05:43:55.931Z,6.80
2019-02-28T05:46:25.971Z,6.80
2019-02-28T05:48:55.757Z,6.90
2019-02-28T05:51:25.905Z,6.70
2019-02-28T05:53:55.865Z,6.60
2019-02-28T05:56:25.668Z,6.90
2019-02-28T05:58:56.265Z,6.90
2019-02-28T06:01:26.498Z,6.80
2019-02-28T06:03:56.522Z,6.80
2019-02-28T06:06:26.960Z,6.80
2019-02-28T06:08:57.120Z,6.70
2019-02-28T06:11:27.543Z,6.90
2019-02-28T06:13:59.662Z,6.80
2019-02-28T06:16:29.972Z,6.90
2019-02-28T06:19:00.191Z,6.80
2019-02-28T06:21:30.427Z,6.60
2019-02-28T06:24:01.418Z,6.50
2019-02-28T06:26:32.910Z,6.50
2019-02-28T06:29:05.092Z,6.70
2019-02-28T06:31:34.520Z,6.60
2019-02-28T06:34:05.661Z,6.50
2019-02-28T06:36:35.464Z,6.60
2019-02-28T06:39:06.911Z,6.70
2019-02-28T06:41:39.949Z,6.60
2019-02-28T06:44:08.226Z,6.80
2019-02-28T06:46:39.792Z,6.70
2019-02-28T06:49:09.189Z,6.80
2019-02-28T06:51:38.822Z,6.70
2019-02-28T06:54:08.758Z,6.70
2019-02-28T06:56:38.659Z,6.70
2019-02-28T06:59:08.582Z,6.80
2019-02-28T07:01:38.464Z,6.80
2019-02-28T07:04:08.090Z,6.90
2019-02-28T07:06:37.865Z,7.00
2019-02-28T07:09:08.126Z,6.90
2019-02-28T07:11:37.844Z,7.10
2019-02-28T07:14:07.268Z,7.20
2019-02-28T07:16:39.065Z,7.20
2019-02-28T07:19:09.182Z,7.20
2019-02-28T07:21:43.007Z,7.20
2019-02-28T07:24:10.264Z,7.20
2019-02-28T07:26:39.868Z,7.30
2019-02-28T07:29:11.971Z,7.30
2019-02-28T07:31:40.687Z,7.50
2019-02-28T07:34:10.514Z,7.40
2019-02-28T07:36:41.524Z,7.50
2019-02-28T07:39:11.175Z,7.60
2019-02-28T07:41:41.499Z,7.60
2019-02-28T07:44:11.208Z,7.60
2019-02-28T07:46:42.258Z,7.70
2019-02-28T07:49:12.305Z,7.90
2019-02-28T07:51:41.944Z,8.10
2019-02-28T07:54:12.655Z,8.50
2019-02-28T07:56:44.235Z,8.90
2019-02-28T07:59:13.864Z,9.30
2019-02-28T08:01:43.296Z,9.50
2019-02-28T08:04:17.873Z,9.60
2019-02-28T08:06:44.417Z,9.90
2019-02-28T08:09:32.940Z,10.00
2019-02-28T08:12:02.701Z,9.80
2019-02-28T08:14:32.490Z,9.90
2019-02-28T08:17:02.103Z,9.60
2019-02-28T08:19:31.903Z,9.50
2019-02-28T08:22:01.628Z,10.00
2019-02-28T08:24:31.218Z,9.90
2019-02-28T08:27:00.928Z,10.40
2019-02-28T08:29:30.659Z,10.60
2019-02-28T08:32:00.182Z,10.40
2019-02-28T08:34:29.704Z,10.80
2019-02-28T08:36:59.462Z,10.90
2019-02-28T08:39:28.954Z,10.70
2019-02-28T08:42:04.389Z,10.60
2019-02-28T08:44:30.059Z,10.60
2019-02-28T08:46:59.617Z,10.80
2019-02-28T08:49:29.265Z,11.30
2019-02-28T08:51:58.981Z,10.60
2019-02-28T08:54:28.382Z,10.50
2019-02-28T08:56:58.040Z,10.90
2019-02-28T08:59:27.779Z,11.40
2019-02-28T09:01:57.181Z,11.80
2019-02-28T09:04:26.821Z,11.90
2019-02-28T09:06:56.774Z,12.70
2019-02-28T09:09:26.707Z,13.30
2019-02-28T09:11:58.197Z,13.60
2019-02-28T09:14:27.738Z,13.60
2019-02-28T09:16:57.344Z,13.50
2019-02-28T09:19:27.263Z,13.40
2019-02-28T09:21:57.422Z,12.70
2019-02-28T09:24:27.293Z,13.20
2019-02-28T09:26:57.062Z,13.00
2019-02-28T09:29:26.603Z,12.80
2019-02-28T09:31:56.333Z,12.90
2019-02-28T09:34:26.000Z,13.20
2019-02-28T09:36:56.848Z,13.20
2019-02-28T09:39:26.667Z,13.40
2019-02-28T09:41:56.378Z,13.30
2019-02-28T09:44:25.980Z,13.40
2019-02-28T09:46:55.587Z,13.10
2019-02-28T09:49:25.301Z,12.60
2019-02-28T09:51:55.139Z,12.70
2019-02-28T09:54:25.495Z,12.80
2019-02-28T09:56:55.341Z,12.80
2019-02-28T09:59:25.271Z,13.00
2019-02-28T10:02:01.165Z,13.20
2019-02-28T10:04:27.347Z,13.10
2019-02-28T10:06:57.253Z,13.40
2019-02-28T10:09:27.540Z,13.60
2019-02-28T10:11:57.482Z,14.00
2019-02-28T10:14:28.982Z,14.10
2019-02-28T10:16:59.341Z,14.20
2019-02-28T10:19:29.067Z,14.00
2019-02-28T10:21:58.622Z,13.90
2019-02-28T10:24:28.539Z,13.50
2019-02-28T10:26:59.583Z,13.50
2019-02-28T10:29:29.342Z,13.50
2019-02-28T10:31:59.225Z,14.10
2019-02-28T10:34:28.680Z,14.20
2019-02-28T10:36:58.356Z,14.30
2019-02-28T10:39:28.021Z,14.50
2019-02-28T10:41:57.671Z,14.40
2019-02-28T10:44:30.625Z,14.50
2019-02-28T10:46:58.378Z,14.90
2019-02-28T10:49:28.237Z,15.50
2019-02-28T10:51:57.738Z,15.30
2019-02-28T10:54:27.444Z,15.60
2019-02-28T10:56:57.052Z,15.90
2019-02-28T10:59:26.758Z,15.60
2019-02-28T11:01:56.697Z,15.60
2019-02-28T11:04:27.590Z,15.10
2019-02-28T11:06:59.331Z,15.10
2019-02-28T11:09:28.739Z,14.90
2019-02-28T11:11:58.575Z,14.80
2019-02-28T11:14:28.256Z,14.30
2019-02-28T11:16:59.372Z,14.20
2019-02-28T11:19:29.338Z,14.30
2019-02-28T11:22:01.612Z,14.10
2019-02-28T11:24:30.292Z,14.00
2019-02-28T11:26:59.897Z,14.20
2019-02-28T11:29:29.703Z,14.40
2019-02-28T11:31:59.576Z,14.30
2019-02-28T11:34:29.338Z,14.20
2019-02-28T11:36:58.940Z,14.10
2019-02-28T11:39:30.506Z,13.70
2019-02-28T11:42:00.176Z,13.40
2019-02-28T11:44:29.912Z,13.50
2019-02-28T11:46:59.578Z,13.80
2019-02-28T11:49:29.468Z,13.90
2019-02-28T11:51:58.984Z,13.70
2019-02-28T11:54:28.736Z,13.50
2019-02-28T11:57:02.809Z,13.50
2019-02-28T11:59:30.303Z,13.70
2019-02-28T12:01:59.606Z,13.80
2019-02-28T12:04:29.336Z,14.20
2019-02-28T12:07:00.839Z,14.40
2019-02-28T12:09:30.417Z,14.40
2019-02-28T12:12:00.384Z,15.00
2019-02-28T12:14:30.170Z,15.50
2019-02-28T12:17:00.181Z,15.80
2019-02-28T12:19:30.064Z,16.20
2019-02-28T12:22:00.295Z,16.70
2019-02-28T12:24:32.391Z,17.10
2019-02-28T12:27:01.378Z,17.00
2019-02-28T12:29:31.110Z,16.60
2019-02-28T12:32:00.822Z,16.10
2019-02-28T12:34:32.166Z,16.10
2019-02-28T12:37:01.855Z,16.30
2019-02-28T12:39:33.331Z,16.10
2019-02-28T12:42:03.058Z,16.30
2019-02-28T12:44:33.176Z,16.00
2019-02-28T12:47:03.354Z,15.60
2019-02-28T12:49:33.365Z,15.90
2019-02-28T12:52:03.181Z,16.20
2019-02-28T12:54:33.303Z,16.30
2019-02-28T12:57:03.943Z,16.20
2019-02-28T12:59:34.819Z,16.20
2019-02-28T13:02:07.199Z,16.30
2019-02-28T13:04:36.740Z,16.20
2019-02-28T13:07:06.536Z,16.40
2019-02-28T13:09:36.536Z,15.90
2019-02-28T13:12:08.040Z,15.80
2019-02-28T13:14:40.586Z,16.00
2019-02-28T13:17:09.655Z,16.10
2019-02-28T13:19:39.542Z,15.80
2019-02-28T13:22:09.309Z,15.80
2019-02-28T13:24:42.444Z,15.30
2019-02-28T13:27:11.815Z,15.50
2019-02-28T13:29:41.701Z,15.40
2019-02-28T13:32:11.955Z,15.50
2019-02-28T13:34:41.699Z,15.50
2019-02-28T13:37:11.568Z,15.70
2019-02-28T13:39:41.174Z,15.30
2019-02-28T13:42:10.862Z,15.30
2019-02-28T13:44:40.486Z,15.30
2019-02-28T13:47:10.826Z,14.90
2019-02-28T13:49:40.855Z,15.10
2019-02-28T13:52:10.843Z,15.30
2019-02-28T13:54:42.043Z,15.60
2019-02-28T13:57:11.873Z,15.20
2019-02-28T13:59:41.578Z,15.20
2019-02-28T14:02:13.499Z,15.20
2019-02-28T14:04:42.418Z,15.20
2019-02-28T14:07:12.268Z,15.40
2019-02-28T14:09:41.821Z,15.60
2019-02-28T14:12:11.466Z,15.20
2019-02-28T14:14:42.310Z,15.20
2019-02-28T14:17:12.775Z,15.00
2019-02-28T14:19:42.415Z,14.80
2019-02-28T14:22:12.346Z,14.80
2019-02-28T14:24:42.172Z,14.80
2019-02-28T14:27:12.057Z,14.60
2019-02-28T14:29:42.980Z,14.40
2019-02-28T14:32:13.141Z,14.10
2019-02-28T14:34:42.747Z,14.20
2019-02-28T14:37:12.654Z,14.20
2019-02-28T14:39:42.679Z,14.00
2019-02-28T14:42:13.494Z,14.00
2019-02-28T14:44:43.139Z,14.10
2019-02-28T14:47:12.837Z,14.10
2019-02-28T14:49:43.895Z,14.10
2019-02-28T14:52:14.411Z,13.90
2019-02-28T14:54:44.455Z,13.80
2019-02-28T14:57:16.642Z,13.20
2019-02-28T14:59:45.549Z,12.90
2019-02-28T15:02:15.413Z,12.40
2019-02-28T15:04:45.837Z,12.30
2019-02-28T15:07:15.513Z,12.10
2019-02-28T15:09:45.298Z,12.10
2019-02-28T15:12:15.182Z,12.10
2019-02-28T15:14:44.936Z,12.10
2019-02-28T15:17:14.579Z,12.20
2019-02-28T15:19:44.159Z,12.20
2019-02-28T15:22:14.230Z,12.10
2019-02-28T15:24:45.293Z,12.00
2019-02-28T15:27:15.173Z,12.00
2019-02-28T15:29:44.814Z,12.00
2019-02-28T15:32:17.241Z,12.00
2019-02-28T15:34:46.134Z,11.90
2019-02-28T15:37:15.539Z,11.80
2019-02-28T15:39:44.895Z,11.90
2019-02-28T15:42:14.813Z,11.80
2019-02-28T15:44:44.415Z,11.90
2019-02-28T15:47:14.455Z,11.80
2019-02-28T15:49:44.039Z,11.70
2019-02-28T15:52:14.096Z,11.70
2019-02-28T15:54:43.745Z,11.70
2019-02-28T15:57:13.491Z,11.70
2019-02-28T15:59:43.493Z,11.60
2019-02-28T16:02:13.733Z,11.70
2019-02-28T16:04:43.734Z,11.80
2019-02-28T16:07:13.430Z,11.90
2019-02-28T16:09:43.259Z,11.90
2019-02-28T16:12:15.201Z,11.90
2019-02-28T16:14:44.214Z,11.80
2019-02-28T16:17:13.907Z,11.90
2019-02-28T16:19:43.855Z,12.00
2019-02-28T16:22:14.646Z,12.10
2019-02-28T16:24:45.054Z,11.90
2019-02-28T16:27:14.687Z,12.00
2019-02-28T16:29:44.085Z,12.10
2019-02-28T16:32:15.115Z,12.20
2019-02-28T16:34:45.294Z,12.20
2019-02-28T16:37:15.052Z,12.20
2019-02-28T16:39:44.863Z,12.20
2019-02-28T16:42:15.176Z,12.10
2019-02-28T16:44:45.303Z,12.00
2019-02-28T16:47:15.219Z,12.00
2019-02-28T16:49:45.255Z,12.00
2019-02-28T16:52:14.954Z,12.00
2019-02-28T16:54:44.692Z,11.90
2019-02-28T16:57:14.452Z,12.00
2019-02-28T16:59:44.069Z,12.10
2019-02-28T17:02:13.733Z,12.10
2019-02-28T17:04:48.579Z,12.10
2019-02-28T17:07:36.956Z,11.90
2019-02-28T17:14:53.889Z,12.00
2019-02-28T17:17:13.878Z,12.00
2019-02-28T17:20:07.980Z,11.90
2019-02-28T17:26:12.131Z,12.00
2019-02-28T17:37:33.194Z,11.90
2019-02-28T17:38:37.145Z,11.80
2019-02-28T17:41:38.635Z,11.80
2019-02-28T17:45:10.158Z,11.90
2019-02-28T17:52:12.789Z,11.90
2019-02-28T17:55:14.514Z,11.90
2019-02-28T17:58:41.108Z,11.80
2019-02-28T18:01:41.246Z,11.80
2019-02-28T18:04:34.045Z,11.80
2019-02-28T18:07:47.460Z,11.80
2019-02-28T18:10:59.191Z,11.90
2019-02-28T18:13:52.253Z,11.90
2019-02-28T18:16:58.268Z,11.80
2019-02-28T18:19:43.447Z,11.80
2019-02-28T18:22:32.918Z,11.80
2019-02-28T18:25:59.098Z,11.80
2019-02-28T18:28:47.098Z,11.80
2019-02-28T18:31:19.085Z,11.80
2019-02-28T18:34:11.833Z,11.80
2019-02-28T18:36:44.340Z,11.70
2019-02-28T18:39:15.430Z,11.80
2019-02-28T18:41:46.582Z,11.80
2019-02-28T18:44:18.782Z,11.90
2019-02-28T18:46:49.153Z,11.90
2019-02-28T18:49:21.338Z,11.80
2019-02-28T18:51:51.754Z,11.80
2019-02-28T18:54:30.494Z,11.70
2019-02-28T18:57:00.931Z,11.80
2019-02-28T18:59:31.402Z,11.70
2019-02-28T19:02:02.106Z,11.80
2019-02-28T19:04:32.334Z,11.80
2019-02-28T19:07:03.060Z,11.80
2019-02-28T19:09:33.536Z,11.80
2019-02-28T19:12:03.781Z,11.80
2019-02-28T19:14:33.853Z,11.80
2019-02-28T19:17:03.914Z,11.80
2019-02-28T19:19:34.397Z,11.90
2019-02-28T19:22:04.250Z,11.80
2019-02-28T19:24:34.282Z,11.60
2019-02-28T19:27:04.593Z,11.50
2019-02-28T19:29:35.095Z,11.60
2019-02-28T19:32:05.232Z,11.60
2019-02-28T19:34:36.649Z,11.50
2019-02-28T19:37:09.373Z,11.40
2019-02-28T19:39:47.707Z,11.30
2019-02-28T19:42:18.421Z,11.30
2019-02-28T19:44:49.058Z,11.30
2019-02-28T19:47:22.047Z,11.30
2019-02-28T19:49:52.372Z,11.20
2019-02-28T19:52:25.801Z,11.10
2019-02-28T19:54:56.094Z,11.10
2019-02-28T19:57:26.237Z,11.10
2019-02-28T19:59:56.690Z,11.20
2019-02-28T20:02:26.982Z,11.10
2019-02-28T20:04:57.196Z,11.10
2019-02-28T20:07:27.659Z,11.00
2019-02-28T20:09:57.756Z,11.10
2019-02-28T20:12:27.786Z,11.20
2019-02-28T20:14:58.489Z,11.20
2019-02-28T20:17:41.322Z,11.30
2019-02-28T20:20:13.681Z,11.20
2019-02-28T20:22:44.212Z,11.10
2019-02-28T20:25:14.573Z,11.10
2019-02-28T20:27:44.345Z,11.00
2019-02-28T20:30:16.369Z,11.00
2019-02-28T20:32:47.317Z,10.90
2019-02-28T20:35:26.099Z,10.80
2019-02-28T20:37:50.171Z,11.00
2019-02-28T20:40:21.478Z,11.00
2019-02-28T20:42:51.776Z,11.00
2019-02-28T20:45:22.541Z,10.80
2019-02-28T20:48:08.570Z,10.80
2019-02-28T20:50:41.443Z,10.90
2019-02-28T20:53:14.508Z,11.00
2019-02-28T20:55:47.490Z,11.00
2019-02-28T20:58:18.938Z,10.90
2019-02-28T21:00:49.614Z,10.70
2019-02-28T21:03:20.276Z,10.80
2019-02-28T21:05:50.795Z,10.80
2019-02-28T21:08:28.287Z,10.90
2019-02-28T21:11:24.471Z,10.80
2019-02-28T21:13:55.733Z,10.70
2019-02-28T21:16:38.048Z,10.70
2019-02-28T21:19:11.934Z,10.80
2019-02-28T21:21:46.133Z,10.90
2019-02-28T21:24:34.326Z,10.90
2019-02-28T21:27:07.728Z,10.90
2019-02-28T21:29:37.767Z,10.90
2019-02-28T21:32:08.264Z,10.80
2019-02-28T21:34:38.588Z,10.70
2019-02-28T21:37:13.380Z,10.70
2019-02-28T21:39:44.172Z,10.70
2019-02-28T21:42:14.577Z,10.60
2019-02-28T21:44:45.187Z,10.60
2019-02-28T21:47:16.568Z,10.50
2019-02-28T21:49:47.096Z,10.60
2019-02-28T21:52:17.330Z,10.50
2019-02-28T21:54:47.645Z,10.60
2019-02-28T21:57:19.204Z,10.60
2019-02-28T21:59:50.137Z,10.70
2019-02-28T22:02:20.807Z,10.70
2019-02-28T22:04:54.386Z,10.60
2019-02-28T22:07:24.535Z,10.60
2019-02-28T22:09:55.065Z,10.70
2019-02-28T22:12:25.358Z,10.70
2019-02-28T22:14:55.202Z,10.60
2019-02-28T22:17:25.303Z,10.70
2019-02-28T22:19:55.727Z,10.60
2019-02-28T22:22:25.825Z,10.70
2019-02-28T22:24:56.342Z,10.70
2019-02-28T22:27:26.768Z,10.70
2019-02-28T22:29:59.336Z,10.70
2019-02-28T22:32:47.333Z,10.70
2019-02-28T22:35:27.691Z,10.70
2019-02-28T22:40:42.405Z,10.70
2019-02-28T22:43:20.586Z,10.70
2019-02-28T22:45:50.736Z,10.70
2019-02-28T22:48:21.336Z,10.60
2019-02-28T22:50:52.861Z,10.50
2019-02-28T22:53:24.131Z,10.50
2019-02-28T22:55:57.407Z,10.70
2019-02-28T22:58:27.893Z,10.80
2019-02-28T23:01:03.085Z,10.70
2019-02-28T23:03:36.617Z,10.70
2019-02-28T23:06:09.046Z,10.70
2019-02-28T23:08:40.334Z,10.70
2019-02-28T23:11:10.254Z,10.70
2019-02-28T23:13:40.551Z,10.60
2019-02-28T23:16:11.206Z,10.60
2019-02-28T23:18:41.604Z,10.50
2019-02-28T23:21:19.604Z,10.40
2019-02-28T23:23:49.964Z,10.40
2019-02-28T23:26:28.726Z,10.30
2019-02-28T23:29:37.811Z,10.40
2019-02-28T23:32:59.635Z,10.50
2019-02-28T23:35:34.258Z,10.40
2019-02-28T23:38:09.004Z,10.40
2019-02-28T23:40:45.141Z,10.40
2019-02-28T23:43:19.260Z,10.40
2019-02-28T23:45:52.246Z,10.40
2019-02-28T23:48:23.280Z,10.40
2019-02-28T23:50:53.207Z,10.50
2019-02-28T23:53:26.893Z,10.40
2019-02-28T23:56:01.007Z,10.40
2019-02-28T23:58:31.880Z,10.40
